sensor_id;sensor_type;location;lat;lon;timestamp;temperature;humidity
47514;DHT22;33951;51.988;5.910;2022-12-18T00:01:47;-2.40;99.90
47514;DHT22;33951;51.988;5.910;2022-12-18T00:05:00;-2.40;99.90
47514;DHT22;33951;51.988;5.910;2022-12-18T00:08:04;-2.40;99.90
47514;DHT22;33951;51.988;5.910;2022-12-18T00:10:52;-2.50;99.90
47514;DHT22;33951;51.988;5.910;2022-12-18T00:13:43;-2.60;99.90
47514;DHT22;33951;51.988;5.910;2022-12-18T00:16:56;-2.60;99.90
47514;DHT22;33951;51.988;5.910;2022-12-18T00:19:46;-2.70;99.90
47514;DHT22;33951;51.988;5.910;2022-12-18T00:22:17;-2.70;99.90
47514;DHT22;33951;51.988;5.910;2022-12-18T00:24:43;-2.80;99.90
47514;DHT22;33951;51.988;5.910;2022-12-18T00:27:08;-2.80;99.90
47514;DHT22;33951;51.988;5.910;2022-12-18T00:29:34;-2.90;99.90
47514;DHT22;33951;51.988;5.910;2022-12-18T00:32:00;-2.80;99.90
47514;DHT22;33951;51.988;5.910;2022-12-18T00:34:25;-2.90;99.90
47514;DHT22;33951;51.988;5.910;2022-12-18T00:36:51;-3.00;99.90
47514;DHT22;33951;51.988;5.910;2022-12-18T00:39:17;-3.20;99.90
47514;DHT22;33951;51.988;5.910;2022-12-18T00:41:42;-3.10;99.90
47514;DHT22;33951;51.988;5.910;2022-12-18T00:44:26;-3.10;99.90
47514;DHT22;33951;51.988;5.910;2022-12-18T00:46:52;-3.20;99.90
47514;DHT22;33951;51.988;5.910;2022-12-18T00:49:19;-3.20;99.90
47514;DHT22;33951;51.988;5.910;2022-12-18T00:51:45;-3.20;99.90
47514;DHT22;33951;51.988;5.910;2022-12-18T00:54:10;-3.10;99.90
47514;DHT22;33951;51.988;5.910;2022-12-18T00:56:37;-3.10;99.90
47514;DHT22;33951;51.988;5.910;2022-12-18T00:59:04;-3.20;99.90
47514;DHT22;33951;51.988;5.910;2022-12-18T05:02:18;-4.10;99.90
47514;DHT22;33951;51.988;5.910;2022-12-18T05:04:43;-4.10;99.90
47514;DHT22;33951;51.988;5.910;2022-12-18T05:07:09;-4.10;99.90
47514;DHT22;33951;51.988;5.910;2022-12-18T05:09:34;-4.10;99.90
47514;DHT22;33951;51.988;5.910;2022-12-18T05:12:00;-4.10;99.90
47514;DHT22;33951;51.988;5.910;2022-12-18T05:14:28;-4.20;99.90
47514;DHT22;33951;51.988;5.910;2022-12-18T05:16:54;-4.10;99.90
47514;DHT22;33951;51.988;5.910;2022-12-18T05:19:20;-4.10;99.90
47514;DHT22;33951;51.988;5.910;2022-12-18T05:21:52;-4.10;99.90
47514;DHT22;33951;51.988;5.910;2022-12-18T05:24:17;-4.10;99.90
47514;DHT22;33951;51.988;5.910;2022-12-18T05:26:43;-4.10;99.90
47514;DHT22;33951;51.988;5.910;2022-12-18T05:29:09;-4.20;99.90
47514;DHT22;33951;51.988;5.910;2022-12-18T05:31:38;-4.10;99.90
47514;DHT22;33951;51.988;5.910;2022-12-18T05:34:04;-4.00;99.90
47514;DHT22;33951;51.988;5.910;2022-12-18T05:36:29;-4.00;99.90
47514;DHT22;33951;51.988;5.910;2022-12-18T05:38:55;-4.00;99.90
47514;DHT22;33951;51.988;5.910;2022-12-18T05:41:23;-4.00;99.90
47514;DHT22;33951;51.988;5.910;2022-12-18T05:43:49;-4.10;99.90
47514;DHT22;33951;51.988;5.910;2022-12-18T05:46:17;-4.10;99.90
47514;DHT22;33951;51.988;5.910;2022-12-18T05:48:45;-4.10;99.90
47514;DHT22;33951;51.988;5.910;2022-12-18T05:51:19;-4.10;99.90
47514;DHT22;33951;51.988;5.910;2022-12-18T05:53:48;-4.00;99.90
47514;DHT22;33951;51.988;5.910;2022-12-18T05:56:18;-4.00;99.90
47514;DHT22;33951;51.988;5.910;2022-12-18T05:58:47;-4.00;99.90
47514;DHT22;33951;51.988;5.910;2022-12-18T06:01:18;-3.90;99.90
47514;DHT22;33951;51.988;5.910;2022-12-18T06:03:46;-4.00;99.90
47514;DHT22;33951;51.988;5.910;2022-12-18T06:06:20;-4.00;99.90
47514;DHT22;33951;51.988;5.910;2022-12-18T06:08:47;-4.00;99.90
47514;DHT22;33951;51.988;5.910;2022-12-18T06:11:21;-4.00;99.90
47514;DHT22;33951;51.988;5.910;2022-12-18T06:13:50;-4.00;99.90
47514;DHT22;33951;51.988;5.910;2022-12-18T06:16:21;-4.10;99.90
47514;DHT22;33951;51.988;5.910;2022-12-18T06:18:47;-4.10;99.90
47514;DHT22;33951;51.988;5.910;2022-12-18T06:21:13;-4.10;99.90
47514;DHT22;33951;51.988;5.910;2022-12-18T06:23:42;-4.00;99.90
47514;DHT22;33951;51.988;5.910;2022-12-18T06:26:14;-4.00;99.90
47514;DHT22;33951;51.988;5.910;2022-12-18T06:28:40;-4.10;99.90
47514;DHT22;33951;51.988;5.910;2022-12-18T06:31:10;-4.10;99.90
47514;DHT22;33951;51.988;5.910;2022-12-18T06:33:39;-4.10;99.90
47514;DHT22;33951;51.988;5.910;2022-12-18T06:36:11;-4.10;99.90
47514;DHT22;33951;51.988;5.910;2022-12-18T06:38:39;-4.10;99.90
47514;DHT22;33951;51.988;5.910;2022-12-18T06:41:11;-4.20;99.90
47514;DHT22;33951;51.988;5.910;2022-12-18T06:43:40;-4.30;99.90
47514;DHT22;33951;51.988;5.910;2022-12-18T06:46:26;-4.30;99.90
47514;DHT22;33951;51.988;5.910;2022-12-18T06:48:52;-4.10;99.90
47514;DHT22;33951;51.988;5.910;2022-12-18T06:51:22;-4.10;99.90
47514;DHT22;33951;51.988;5.910;2022-12-18T06:53:54;-4.10;99.90
47514;DHT22;33951;51.988;5.910;2022-12-18T06:56:30;-4.20;99.90
47514;DHT22;33951;51.988;5.910;2022-12-18T06:59:03;-4.20;99.90
47514;DHT22;33951;51.988;5.910;2022-12-18T07:01:28;-4.10;99.90
47514;DHT22;33951;51.988;5.910;2022-12-18T07:03:57;-4.20;99.90
47514;DHT22;33951;51.988;5.910;2022-12-18T07:06:27;-4.10;99.90
47514;DHT22;33951;51.988;5.910;2022-12-18T07:08:55;-4.00;99.90
47514;DHT22;33951;51.988;5.910;2022-12-18T07:11:24;-4.10;99.90
47514;DHT22;33951;51.988;5.910;2022-12-18T07:13:53;-4.10;99.90
47514;DHT22;33951;51.988;5.910;2022-12-18T07:16:24;-4.10;99.90
47514;DHT22;33951;51.988;5.910;2022-12-18T07:18:50;-4.00;99.90
47514;DHT22;33951;51.988;5.910;2022-12-18T07:21:17;-4.00;99.90
47514;DHT22;33951;51.988;5.910;2022-12-18T07:23:43;-4.00;99.90
47514;DHT22;33951;51.988;5.910;2022-12-18T07:26:12;-3.90;99.90
47514;DHT22;33951;51.988;5.910;2022-12-18T07:28:41;-3.90;99.90
47514;DHT22;33951;51.988;5.910;2022-12-18T07:31:13;-3.80;99.90
47514;DHT22;33951;51.988;5.910;2022-12-18T07:33:39;-3.90;99.90
47514;DHT22;33951;51.988;5.910;2022-12-18T07:36:08;-4.00;99.90
47514;DHT22;33951;51.988;5.910;2022-12-18T07:38:38;-4.00;99.90
47514;DHT22;33951;51.988;5.910;2022-12-18T07:41:13;-4.10;99.90
47514;DHT22;33951;51.988;5.910;2022-12-18T07:43:47;-3.90;99.90
47514;DHT22;33951;51.988;5.910;2022-12-18T07:46:17;-3.90;99.90
47514;DHT22;33951;51.988;5.910;2022-12-18T07:48:49;-3.80;99.90
47514;DHT22;33951;51.988;5.910;2022-12-18T07:51:18;-3.90;99.90
47514;DHT22;33951;51.988;5.910;2022-12-18T07:53:47;-3.80;99.90
47514;DHT22;33951;51.988;5.910;2022-12-18T07:56:24;-3.80;99.90
47514;DHT22;33951;51.988;5.910;2022-12-18T07:59:10;-3.80;99.90
47514;DHT22;33951;51.988;5.910;2022-12-18T08:01:36;-3.70;99.90
47514;DHT22;33951;51.988;5.910;2022-12-18T08:04:15;-3.70;99.90
47514;DHT22;33951;51.988;5.910;2022-12-18T08:06:43;-3.60;99.90
47514;DHT22;33951;51.988;5.910;2022-12-18T08:09:20;-3.50;99.90
47514;DHT22;33951;51.988;5.910;2022-12-18T08:11:51;-3.60;99.90
47514;DHT22;33951;51.988;5.910;2022-12-18T08:14:27;-3.60;99.90
47514;DHT22;33951;51.988;5.910;2022-12-18T08:17:24;-3.50;99.90
47514;DHT22;33951;51.988;5.910;2022-12-18T08:20:12;-3.50;99.90
47514;DHT22;33951;51.988;5.910;2022-12-18T08:25:27;-3.30;99.90
47514;DHT22;33951;51.988;5.910;2022-12-18T08:27:54;-3.20;99.90
47514;DHT22;33951;51.988;5.910;2022-12-18T08:30:22;-3.30;99.90
47514;DHT22;33951;51.988;5.910;2022-12-18T08:32:54;-3.10;99.90
47514;DHT22;33951;51.988;5.910;2022-12-18T08:35:19;-3.10;99.90
47514;DHT22;33951;51.988;5.910;2022-12-18T08:37:45;-3.10;99.90
47514;DHT22;33951;51.988;5.910;2022-12-18T08:40:12;-3.00;99.90
47514;DHT22;33951;51.988;5.910;2022-12-18T08:42:38;-3.00;99.90
47514;DHT22;33951;51.988;5.910;2022-12-18T08:45:29;-2.90;99.90
47514;DHT22;33951;51.988;5.910;2022-12-18T08:48:03;-2.90;99.90
47514;DHT22;33951;51.988;5.910;2022-12-18T08:50:41;-2.70;99.90
47514;DHT22;33951;51.988;5.910;2022-12-18T08:53:09;-2.60;99.90
47514;DHT22;33951;51.988;5.910;2022-12-18T08:55:35;-2.60;99.90
47514;DHT22;33951;51.988;5.910;2022-12-18T08:58:11;-2.70;99.90
47514;DHT22;33951;51.988;5.910;2022-12-18T09:00:42;-2.50;99.90
47514;DHT22;33951;51.988;5.910;2022-12-18T09:03:15;-2.50;99.90
47514;DHT22;33951;51.988;5.910;2022-12-18T09:05:57;-2.50;99.90
47514;DHT22;33951;51.988;5.910;2022-12-18T09:08:28;-2.40;99.90
47514;DHT22;33951;51.988;5.910;2022-12-18T09:10:59;-2.30;99.90
47514;DHT22;33951;51.988;5.910;2022-12-18T09:13:44;-2.30;99.90
47514;DHT22;33951;51.988;5.910;2022-12-18T09:16:17;-2.30;99.90
47514;DHT22;33951;51.988;5.910;2022-12-18T09:18:50;-2.30;99.90
47514;DHT22;33951;51.988;5.910;2022-12-18T09:21:21;-2.10;99.90
47514;DHT22;33951;51.988;5.910;2022-12-18T09:23:50;-2.00;99.90
47514;DHT22;33951;51.988;5.910;2022-12-18T09:26:25;-1.90;99.90
47514;DHT22;33951;51.988;5.910;2022-12-18T09:28:55;-2.00;99.90
47514;DHT22;33951;51.988;5.910;2022-12-18T09:31:24;-1.90;99.90
47514;DHT22;33951;51.988;5.910;2022-12-18T09:34:22;-1.80;99.90
47514;DHT22;33951;51.988;5.910;2022-12-18T09:40:36;-1.70;99.90
47514;DHT22;33951;51.988;5.910;2022-12-18T09:43:50;-1.60;99.90
47514;DHT22;33951;51.988;5.910;2022-12-18T09:46:45;-1.50;99.90
47514;DHT22;33951;51.988;5.910;2022-12-18T09:49:21;-1.50;99.90
47514;DHT22;33951;51.988;5.910;2022-12-18T09:52:15;-1.50;99.90
47514;DHT22;33951;51.988;5.910;2022-12-18T09:58:02;-1.30;99.90
47514;DHT22;33951;51.988;5.910;2022-12-18T10:01:22;-1.10;99.90
47514;DHT22;33951;51.988;5.910;2022-12-18T10:03:51;-1.00;99.90
47514;DHT22;33951;51.988;5.910;2022-12-18T10:06:28;-1.00;99.90
47514;DHT22;33951;51.988;5.910;2022-12-18T10:09:33;-1.00;99.90
47514;DHT22;33951;51.988;5.910;2022-12-18T10:18:11;-0.80;99.90
47514;DHT22;33951;51.988;5.910;2022-12-18T10:20:46;-0.80;99.90
47514;DHT22;33951;51.988;5.910;2022-12-18T10:23:28;-0.60;99.90
47514;DHT22;33951;51.988;5.910;2022-12-18T10:29:18;-0.40;99.90
47514;DHT22;33951;51.988;5.910;2022-12-18T10:31:50;-0.40;99.90
47514;DHT22;33951;51.988;5.910;2022-12-18T10:34:28;-0.50;99.90
47514;DHT22;33951;51.988;5.910;2022-12-18T10:37:25;-0.30;99.90
47514;DHT22;33951;51.988;5.910;2022-12-18T10:40:13;-0.30;99.90
47514;DHT22;33951;51.988;5.910;2022-12-18T10:42:45;-0.20;99.90
47514;DHT22;33951;51.988;5.910;2022-12-18T10:45:24;-0.10;99.90
47514;DHT22;33951;51.988;5.910;2022-12-18T10:47:55;-0.10;99.90
47514;DHT22;33951;51.988;5.910;2022-12-18T10:50:32;0.10;99.90
47514;DHT22;33951;51.988;5.910;2022-12-18T10:53:06;0.00;99.90
47514;DHT22;33951;51.988;5.910;2022-12-18T10:55:38;0.10;99.90
47514;DHT22;33951;51.988;5.910;2022-12-18T10:58:36;0.10;99.90
47514;DHT22;33951;51.988;5.910;2022-12-18T11:01:12;0.20;99.90
47514;DHT22;33951;51.988;5.910;2022-12-18T11:06:21;0.30;99.90
47514;DHT22;33951;51.988;5.910;2022-12-18T11:11:33;0.40;99.90
47514;DHT22;33951;51.988;5.910;2022-12-18T11:14:19;0.30;99.90
47514;DHT22;33951;51.988;5.910;2022-12-18T11:16:47;0.30;99.90
47514;DHT22;33951;51.988;5.910;2022-12-18T11:22:00;0.30;99.90
47514;DHT22;33951;51.988;5.910;2022-12-18T11:24:28;0.40;99.90
47514;DHT22;33951;51.988;5.910;2022-12-18T11:26:57;0.50;99.90
47514;DHT22;33951;51.988;5.910;2022-12-18T11:29:30;0.50;99.90
47514;DHT22;33951;51.988;5.910;2022-12-18T11:32:32;0.60;99.90
47514;DHT22;33951;51.988;5.910;2022-12-18T11:35:32;0.70;99.90
47514;DHT22;33951;51.988;5.910;2022-12-18T11:38:02;0.60;99.90
47514;DHT22;33951;51.988;5.910;2022-12-18T11:40:34;0.70;99.90
47514;DHT22;33951;51.988;5.910;2022-12-18T11:45:53;0.60;99.90
47514;DHT22;33951;51.988;5.910;2022-12-18T11:48:27;0.60;99.90
47514;DHT22;33951;51.988;5.910;2022-12-18T11:50:56;0.60;99.90
47514;DHT22;33951;51.988;5.910;2022-12-18T11:53:24;0.60;99.90
47514;DHT22;33951;51.988;5.910;2022-12-18T12:21:23;1.10;99.90
47514;DHT22;33951;51.988;5.910;2022-12-18T12:26:38;1.30;99.90
47514;DHT22;33951;51.988;5.910;2022-12-18T12:37:48;1.10;99.90
47514;DHT22;33951;51.988;5.910;2022-12-18T12:40:19;1.10;99.90
47514;DHT22;33951;51.988;5.910;2022-12-18T12:42:58;1.20;99.90
47514;DHT22;33951;51.988;5.910;2022-12-18T12:45:45;1.30;99.90
47514;DHT22;33951;51.988;5.910;2022-12-18T12:48:58;1.20;99.90
47514;DHT22;33951;51.988;5.910;2022-12-18T12:51:34;1.20;99.90
47514;DHT22;33951;51.988;5.910;2022-12-18T12:54:01;1.20;99.90
47514;DHT22;33951;51.988;5.910;2022-12-18T13:02:03;1.20;99.90
47514;DHT22;33951;51.988;5.910;2022-12-18T13:07:26;1.30;99.90
47514;DHT22;33951;51.988;5.910;2022-12-18T13:13:14;1.50;99.90
47514;DHT22;33951;51.988;5.910;2022-12-18T13:15:48;1.40;99.90
47514;DHT22;33951;51.988;5.910;2022-12-18T13:18:19;1.40;99.90
47514;DHT22;33951;51.988;5.910;2022-12-18T13:34:17;1.20;99.90
47514;DHT22;33951;51.988;5.910;2022-12-18T13:36:43;1.10;99.90
47514;DHT22;33951;51.988;5.910;2022-12-18T13:39:23;1.20;99.90
47514;DHT22;33951;51.988;5.910;2022-12-18T13:44:59;1.30;99.90
47514;DHT22;33951;51.988;5.910;2022-12-18T13:47:27;1.40;99.90
47514;DHT22;33951;51.988;5.910;2022-12-18T13:49:57;1.40;99.90
47514;DHT22;33951;51.988;5.910;2022-12-18T13:52:25;1.50;99.90
47514;DHT22;33951;51.988;5.910;2022-12-18T13:54:54;1.50;99.90
47514;DHT22;33951;51.988;5.910;2022-12-18T13:57:38;1.40;99.90
47514;DHT22;33951;51.988;5.910;2022-12-18T14:00:32;1.40;99.90
47514;DHT22;33951;51.988;5.910;2022-12-18T14:02:59;1.40;99.90
47514;DHT22;33951;51.988;5.910;2022-12-18T14:05:28;1.40;99.90
47514;DHT22;33951;51.988;5.910;2022-12-18T14:08:01;1.50;99.90
47514;DHT22;33951;51.988;5.910;2022-12-18T14:10:29;1.50;99.90
47514;DHT22;33951;51.988;5.910;2022-12-18T14:12:55;1.50;99.90
47514;DHT22;33951;51.988;5.910;2022-12-18T14:18:22;1.50;99.90
47514;DHT22;33951;51.988;5.910;2022-12-18T14:20:50;1.50;99.90
47514;DHT22;33951;51.988;5.910;2022-12-18T14:23:40;1.40;99.90
47514;DHT22;33951;51.988;5.910;2022-12-18T14:26:25;1.50;99.90
47514;DHT22;33951;51.988;5.910;2022-12-18T14:28:54;1.60;99.90
47514;DHT22;33951;51.988;5.910;2022-12-18T14:31:24;1.70;99.90
47514;DHT22;33951;51.988;5.910;2022-12-18T14:33:50;1.70;99.90
47514;DHT22;33951;51.988;5.910;2022-12-18T14:36:24;1.60;99.90
47514;DHT22;33951;51.988;5.910;2022-12-18T14:38:52;1.60;99.90
47514;DHT22;33951;51.988;5.910;2022-12-18T14:41:22;1.50;99.90
47514;DHT22;33951;51.988;5.910;2022-12-18T14:43:51;1.50;99.90
47514;DHT22;33951;51.988;5.910;2022-12-18T14:46:41;1.50;99.90
47514;DHT22;33951;51.988;5.910;2022-12-18T14:49:27;1.50;99.90
47514;DHT22;33951;51.988;5.910;2022-12-18T14:51:59;1.50;99.90
47514;DHT22;33951;51.988;5.910;2022-12-18T14:54:27;1.40;99.90
47514;DHT22;33951;51.988;5.910;2022-12-18T14:57:01;1.50;99.90
47514;DHT22;33951;51.988;5.910;2022-12-18T14:59:28;1.50;99.90
47514;DHT22;33951;51.988;5.910;2022-12-18T15:04:33;1.60;99.90
47514;DHT22;33951;51.988;5.910;2022-12-18T15:09:44;1.60;99.90
47514;DHT22;33951;51.988;5.910;2022-12-18T15:12:36;1.60;99.90
47514;DHT22;33951;51.988;5.910;2022-12-18T15:15:03;1.60;99.90
47514;DHT22;33951;51.988;5.910;2022-12-18T15:17:29;1.50;99.90
47514;DHT22;33951;51.988;5.910;2022-12-18T15:20:03;1.40;99.90
47514;DHT22;33951;51.988;5.910;2022-12-18T15:22:35;1.40;99.90
47514;DHT22;33951;51.988;5.910;2022-12-18T15:25:02;1.40;99.90
47514;DHT22;33951;51.988;5.910;2022-12-18T15:27:32;1.50;99.90
47514;DHT22;33951;51.988;5.910;2022-12-18T15:30:21;1.40;99.90
47514;DHT22;33951;51.988;5.910;2022-12-18T15:32:51;1.40;99.90
47514;DHT22;33951;51.988;5.910;2022-12-18T15:35:23;1.40;99.90
47514;DHT22;33951;51.988;5.910;2022-12-18T15:37:50;1.40;99.90
47514;DHT22;33951;51.988;5.910;2022-12-18T15:40:23;1.50;99.90
47514;DHT22;33951;51.988;5.910;2022-12-18T15:42:52;1.40;99.90
47514;DHT22;33951;51.988;5.910;2022-12-18T15:45:37;1.30;99.90
47514;DHT22;33951;51.988;5.910;2022-12-18T15:48:21;1.20;99.90
47514;DHT22;33951;51.988;5.910;2022-12-18T15:50:51;1.20;99.90
47514;DHT22;33951;51.988;5.910;2022-12-18T15:53:18;1.30;99.90
47514;DHT22;33951;51.988;5.910;2022-12-18T15:58:59;1.10;99.90
47514;DHT22;33951;51.988;5.910;2022-12-18T16:01:27;1.20;99.90
47514;DHT22;33951;51.988;5.910;2022-12-18T16:03:53;1.20;99.90
47514;DHT22;33951;51.988;5.910;2022-12-18T16:06:20;1.20;99.90
47514;DHT22;33951;51.988;5.910;2022-12-18T16:08:47;1.20;99.90
47514;DHT22;33951;51.988;5.910;2022-12-18T16:11:32;1.20;99.90
47514;DHT22;33951;51.988;5.910;2022-12-18T16:14:23;1.30;99.90
47514;DHT22;33951;51.988;5.910;2022-12-18T16:16:54;1.30;99.90
47514;DHT22;33951;51.988;5.910;2022-12-18T16:19:20;1.20;99.90
47514;DHT22;33951;51.988;5.910;2022-12-18T16:21:47;1.10;99.90
47514;DHT22;33951;51.988;5.910;2022-12-18T16:24:18;1.00;99.90
47514;DHT22;33951;51.988;5.910;2022-12-18T16:26:44;1.00;99.90
47514;DHT22;33951;51.988;5.910;2022-12-18T16:29:10;1.10;99.90
47514;DHT22;33951;51.988;5.910;2022-12-18T16:31:37;1.00;99.90
47514;DHT22;33951;51.988;5.910;2022-12-18T16:34:21;1.10;99.90
47514;DHT22;33951;51.988;5.910;2022-12-18T16:36:48;1.10;99.90
47514;DHT22;33951;51.988;5.910;2022-12-18T16:39:17;1.10;99.90
47514;DHT22;33951;51.988;5.910;2022-12-18T16:41:57;1.10;99.90
47514;DHT22;33951;51.988;5.910;2022-12-18T16:44:23;1.00;99.90
47514;DHT22;33951;51.988;5.910;2022-12-18T16:46:49;1.00;99.90
47514;DHT22;33951;51.988;5.910;2022-12-18T16:49:43;1.00;99.90
47514;DHT22;33951;51.988;5.910;2022-12-18T16:52:17;1.00;99.90
47514;DHT22;33951;51.988;5.910;2022-12-18T16:54:43;1.00;99.90
47514;DHT22;33951;51.988;5.910;2022-12-18T16:57:13;1.10;99.90
47514;DHT22;33951;51.988;5.910;2022-12-18T16:59:41;1.10;99.90
47514;DHT22;33951;51.988;5.910;2022-12-18T17:02:16;1.00;99.90
47514;DHT22;33951;51.988;5.910;2022-12-18T17:04:42;1.10;99.90
47514;DHT22;33951;51.988;5.910;2022-12-18T17:07:10;1.00;99.90
47514;DHT22;33951;51.988;5.910;2022-12-18T17:09:36;0.90;99.90
47514;DHT22;33951;51.988;5.910;2022-12-18T17:12:02;0.80;99.90
47514;DHT22;33951;51.988;5.910;2022-12-18T17:14:35;0.80;99.90
47514;DHT22;33951;51.988;5.910;2022-12-18T17:17:01;0.70;99.90
47514;DHT22;33951;51.988;5.910;2022-12-18T17:19:29;0.80;99.90
47514;DHT22;33951;51.988;5.910;2022-12-18T17:22:00;0.70;99.90
47514;DHT22;33951;51.988;5.910;2022-12-18T17:24:28;0.60;99.90
47514;DHT22;33951;51.988;5.910;2022-12-18T17:26:54;0.70;99.90
47514;DHT22;33951;51.988;5.910;2022-12-18T17:29:20;0.70;99.90
47514;DHT22;33951;51.988;5.910;2022-12-18T17:31:46;0.70;99.90
47514;DHT22;33951;51.988;5.910;2022-12-18T17:34:13;0.70;99.90
47514;DHT22;33951;51.988;5.910;2022-12-18T17:36:42;0.70;99.90
47514;DHT22;33951;51.988;5.910;2022-12-18T17:39:16;0.70;99.90
47514;DHT22;33951;51.988;5.910;2022-12-18T17:41:47;0.70;99.90
47514;DHT22;33951;51.988;5.910;2022-12-18T17:44:16;0.80;99.90
47514;DHT22;33951;51.988;5.910;2022-12-18T17:46:55;0.80;99.90
47514;DHT22;33951;51.988;5.910;2022-12-18T17:49:21;0.90;99.90
47514;DHT22;33951;51.988;5.910;2022-12-18T17:51:50;0.90;99.90
47514;DHT22;33951;51.988;5.910;2022-12-18T17:56:57;0.90;99.90
47514;DHT22;33951;51.988;5.910;2022-12-18T17:59:25;0.70;99.90
47514;DHT22;33951;51.988;5.910;2022-12-18T18:01:59;0.70;99.90
47514;DHT22;33951;51.988;5.910;2022-12-18T18:04:27;0.70;99.90
47514;DHT22;33951;51.988;5.910;2022-12-18T18:06:58;0.60;99.90
47514;DHT22;33951;51.988;5.910;2022-12-18T18:16:06;0.50;99.90
47514;DHT22;33951;51.988;5.910;2022-12-18T18:18:38;0.60;99.90
47514;DHT22;33951;51.988;5.910;2022-12-18T18:21:08;0.60;99.90
47514;DHT22;33951;51.988;5.910;2022-12-18T18:23:34;0.70;99.90
47514;DHT22;33951;51.988;5.910;2022-12-18T18:26:07;0.80;99.90
47514;DHT22;33951;51.988;5.910;2022-12-18T18:28:34;0.90;99.90
47514;DHT22;33951;51.988;5.910;2022-12-18T18:31:04;0.90;99.90
47514;DHT22;33951;51.988;5.910;2022-12-18T18:33:33;0.90;99.90
47514;DHT22;33951;51.988;5.910;2022-12-18T18:36:04;0.80;99.90
47514;DHT22;33951;51.988;5.910;2022-12-18T18:38:35;0.80;99.90
47514;DHT22;33951;51.988;5.910;2022-12-18T18:41:04;1.00;99.90
47514;DHT22;33951;51.988;5.910;2022-12-18T18:43:38;0.90;99.90
47514;DHT22;33951;51.988;5.910;2022-12-18T18:46:04;0.70;99.90
47514;DHT22;33951;51.988;5.910;2022-12-18T18:48:50;0.70;99.90
47514;DHT22;33951;51.988;5.910;2022-12-18T18:51:17;0.70;99.90
47514;DHT22;33951;51.988;5.910;2022-12-18T18:53:45;0.70;99.90
47514;DHT22;33951;51.988;5.910;2022-12-18T18:56:16;0.60;99.90
47514;DHT22;33951;51.988;5.910;2022-12-18T18:58:42;0.70;99.90
47514;DHT22;33951;51.988;5.910;2022-12-18T19:01:17;0.80;99.90
47514;DHT22;33951;51.988;5.910;2022-12-18T19:03:48;0.90;99.90
47514;DHT22;33951;51.988;5.910;2022-12-18T19:06:22;1.00;99.90
47514;DHT22;33951;51.988;5.910;2022-12-18T19:08:49;0.80;99.90
47514;DHT22;33951;51.988;5.910;2022-12-18T19:11:24;0.90;99.90
47514;DHT22;33951;51.988;5.910;2022-12-18T19:14:12;1.00;99.90
47514;DHT22;33951;51.988;5.910;2022-12-18T19:16:41;1.00;99.90
47514;DHT22;33951;51.988;5.910;2022-12-18T19:19:56;1.00;99.90
47514;DHT22;33951;51.988;5.910;2022-12-18T19:22:36;1.00;99.90
47514;DHT22;33951;51.988;5.910;2022-12-18T19:25:08;0.90;99.90
47514;DHT22;33951;51.988;5.910;2022-12-18T19:27:49;1.00;99.90
47514;DHT22;33951;51.988;5.910;2022-12-18T19:36:29;0.90;99.90
47514;DHT22;33951;51.988;5.910;2022-12-18T19:45:29;0.90;99.90
47514;DHT22;33951;51.988;5.910;2022-12-18T19:47:59;0.90;99.90
47514;DHT22;33951;51.988;5.910;2022-12-18T19:50:31;0.90;99.90
47514;DHT22;33951;51.988;5.910;2022-12-18T19:53:21;1.00;99.90
47514;DHT22;33951;51.988;5.910;2022-12-18T19:59:41;1.00;99.90
47514;DHT22;33951;51.988;5.910;2022-12-18T20:02:15;1.10;99.90
47514;DHT22;33951;51.988;5.910;2022-12-18T20:04:48;1.20;99.90
47514;DHT22;33951;51.988;5.910;2022-12-18T20:07:31;1.20;99.90
47514;DHT22;33951;51.988;5.910;2022-12-18T20:10:09;1.30;99.90
47514;DHT22;33951;51.988;5.910;2022-12-18T20:12:55;1.20;99.90
47514;DHT22;33951;51.988;5.910;2022-12-18T20:15:27;1.20;99.90
47514;DHT22;33951;51.988;5.910;2022-12-18T20:21:01;1.30;99.90
47514;DHT22;33951;51.988;5.910;2022-12-18T20:23:46;1.30;99.90
47514;DHT22;33951;51.988;5.910;2022-12-18T20:26:14;1.30;99.90
47514;DHT22;33951;51.988;5.910;2022-12-18T20:28:50;1.30;99.90
47514;DHT22;33951;51.988;5.910;2022-12-18T20:31:16;1.30;99.90
47514;DHT22;33951;51.988;5.910;2022-12-18T20:33:45;1.30;99.90
47514;DHT22;33951;51.988;5.910;2022-12-18T20:36:19;1.20;99.90
47514;DHT22;33951;51.988;5.910;2022-12-18T20:38:51;1.30;99.90
47514;DHT22;33951;51.988;5.910;2022-12-18T20:41:24;1.30;99.90
47514;DHT22;33951;51.988;5.910;2022-12-18T20:44:12;1.30;99.90
47514;DHT22;33951;51.988;5.910;2022-12-18T20:46:39;1.30;99.90
47514;DHT22;33951;51.988;5.910;2022-12-18T20:49:08;1.20;99.90
47514;DHT22;33951;51.988;5.910;2022-12-18T20:51:51;1.10;99.90
47514;DHT22;33951;51.988;5.910;2022-12-18T20:54:30;1.20;99.90
47514;DHT22;33951;51.988;5.910;2022-12-18T20:56:58;1.30;99.90
47514;DHT22;33951;51.988;5.910;2022-12-18T20:59:27;1.30;99.90
47514;DHT22;33951;51.988;5.910;2022-12-18T21:04:41;1.40;99.90
47514;DHT22;33951;51.988;5.910;2022-12-18T21:07:28;1.30;99.90
47514;DHT22;33951;51.988;5.910;2022-12-18T21:10:12;1.40;99.90
47514;DHT22;33951;51.988;5.910;2022-12-18T21:13:09;1.40;99.90
47514;DHT22;33951;51.988;5.910;2022-12-18T21:15:41;1.40;99.90
47514;DHT22;33951;51.988;5.910;2022-12-18T21:21:12;1.30;99.90
47514;DHT22;33951;51.988;5.910;2022-12-18T21:27:29;1.50;99.90
47514;DHT22;33951;51.988;5.910;2022-12-18T21:30:31;1.40;99.90
47514;DHT22;33951;51.988;5.910;2022-12-18T21:36:14;1.30;99.90
47514;DHT22;33951;51.988;5.910;2022-12-18T21:38:54;1.20;99.90
47514;DHT22;33951;51.988;5.910;2022-12-18T21:41:30;1.10;99.90
47514;DHT22;33951;51.988;5.910;2022-12-18T21:47:38;1.20;99.90
47514;DHT22;33951;51.988;5.910;2022-12-18T21:50:07;1.20;99.90
47514;DHT22;33951;51.988;5.910;2022-12-18T21:52:36;1.20;99.90
47514;DHT22;33951;51.988;5.910;2022-12-18T21:55:08;1.20;99.90
47514;DHT22;33951;51.988;5.910;2022-12-18T21:57:41;1.20;99.90
47514;DHT22;33951;51.988;5.910;2022-12-18T22:00:18;1.30;99.90
47514;DHT22;33951;51.988;5.910;2022-12-18T22:02:47;1.40;99.90
47514;DHT22;33951;51.988;5.910;2022-12-18T22:05:15;1.40;99.90
47514;DHT22;33951;51.988;5.910;2022-12-18T22:11:15;1.30;99.90
47514;DHT22;33951;51.988;5.910;2022-12-18T22:13:43;1.30;99.90
47514;DHT22;33951;51.988;5.910;2022-12-18T22:19:55;1.30;99.90
47514;DHT22;33951;51.988;5.910;2022-12-18T22:22:44;1.20;99.90
47514;DHT22;33951;51.988;5.910;2022-12-18T22:25:21;1.10;99.90
47514;DHT22;33951;51.988;5.910;2022-12-18T22:31:41;1.30;99.90
47514;DHT22;33951;51.988;5.910;2022-12-18T22:37:43;1.40;99.90
47514;DHT22;33951;51.988;5.910;2022-12-18T22:40:24;1.30;99.90
47514;DHT22;33951;51.988;5.910;2022-12-18T22:43:09;1.20;99.90
47514;DHT22;33951;51.988;5.910;2022-12-18T22:45:35;1.40;99.90
47514;DHT22;33951;51.988;5.910;2022-12-18T22:48:03;1.50;99.90
47514;DHT22;33951;51.988;5.910;2022-12-18T22:50:32;1.40;99.90
47514;DHT22;33951;51.988;5.910;2022-12-18T22:53:14;1.40;99.90
47514;DHT22;33951;51.988;5.910;2022-12-18T22:55:59;1.50;99.90
47514;DHT22;33951;51.988;5.910;2022-12-18T22:58:32;1.50;99.90
47514;DHT22;33951;51.988;5.910;2022-12-18T23:01:04;1.50;99.90
47514;DHT22;33951;51.988;5.910;2022-12-18T23:03:35;1.40;99.90
47514;DHT22;33951;51.988;5.910;2022-12-18T23:06:23;1.30;99.90